Time,TemperatureF,DewpointF,PressureIn,WindDirection,WindDirectionDegrees,WindSpeedMPH,WindSpeedGustMPH,Humidity,HourlyPrecipIn,Conditions,Clouds,dailyrainin,SolarRadiationWatts/m^2,SoftwareType,DateUTC
2013-10-10 00:03:00,61.0,36.5,29.41,South,180,0.0,0.0,40,0.00,CLR,OVC,0.00,0.0,WeatherDisplay:10.37,2013-10-09 13:03:00,
2013-10-10 00:08:00,61.0,37.1,29.41,South,180,0.0,0.0,41,0.00,CLR,OVC,0.00,0.0,WeatherDisplay:10.37,2013-10-09 13:08:00,
2013-10-10 00:13:00,60.8,36.9,29.41,SSE,158,0.0,0.0,41,0.00,CLR,OVC,0.00,0.0,WeatherDisplay:10.37,2013-10-09 13:13:00,
2013-10-10 00:18:00,60.6,36.8,29.41,WNW,292,0.0,0.0,41,0.00,CLR,OVC,0.00,0.0,WeatherDisplay:10.37,2013-10-09 13:18:00,
2013-10-10 00:23:00,60.6,37.4,29.41,WNW,292,0.0,0.0,42,0.00,CLR,OVC,0.00,0.0,WeatherDisplay:10.37,2013-10-09 13:23:00,
2013-10-10 00:28:00,60.4,37.2,29.38,East,90,0.0,0.0,42,0.00,CLR,OVC,0.00,0.0,WeatherDisplay:10.37,2013-10-09 13:28:00,
2013-10-10 00:33:00,60.1,37.5,29.38,West,270,0.0,0.0,43,0.00,CLR,OVC,0.00,0.0,WeatherDisplay:10.37,2013-10-09 13:33:00,
2013-10-10 00:38:00,59.9,37.3,29.38,SE,135,1.6,1.6,43,0.00,CLR,OVC,0.00,0.0,WeatherDisplay:10.37,2013-10-09 13:38:00,
2013-10-10 00:43:00,59.7,37.8,29.38,NW,315,0.0,0.0,44,0.00,CLR,OVC,0.00,0.0,WeatherDisplay:10.37,2013-10-09 13:43:00,
2013-10-10 00:48:00,59.7,37.8,29.38,South,180,0.0,0.0,44,0.00,CLR,OVC,0.00,0.0,WeatherDisplay:10.37,2013-10-09 13:48:00,
2013-10-10 00:53:00,59.5,37.6,29.38,ENE,68,0.0,0.0,44,0.00,CLR,OVC,0.00,0.0,WeatherDisplay:10.37,2013-10-09 13:53:00,
2013-10-10 00:58:00,59.5,37.0,29.38,WSW,248,0.0,0.0,43,0.00,CLR,OVC,0.00,0.0,WeatherDisplay:10.37,2013-10-09 13:58:00,
2013-10-10 01:03:00,59.4,37.4,29.38,WSW,248,0.0,0.0,44,0.00,CLR,OVC,0.00,0.0,WeatherDisplay:10.37,2013-10-09 14:03:00,
2013-10-10 01:08:00,59.2,37.3,29.38,SSW,202,0.0,0.0,44,0.00,CLR,OVC,0.00,0.0,WeatherDisplay:10.37,2013-10-09 14:08:00,
2013-10-10 01:13:00,59.2,37.8,29.38,SSW,202,0.0,0.0,45,0.00,CLR,OVC,0.00,0.0,WeatherDisplay:10.37,2013-10-09 14:13:00,
2013-10-10 01:18:00,59.0,37.7,29.38,NW,315,0.0,0.0,45,0.00,CLR,OVC,0.00,0.0,WeatherDisplay:10.37,2013-10-09 14:18:00,
2013-10-10 01:23:00,58.8,37.5,29.38,SW,225,1.6,0.0,45,0.00,CLR,OVC,0.00,0.0,WeatherDisplay:10.37,2013-10-09 14:23:00,
2013-10-10 01:28:00,58.8,37.5,29.35,WNW,292,2.0,0.0,45,0.00,CLR,OVC,0.00,0.0,WeatherDisplay:10.37,2013-10-09 14:28:00,
2013-10-10 01:33:00,58.6,37.3,29.35,WNW,292,2.3,2.3,45,0.00,CLR,OVC,0.00,0.0,WeatherDisplay:10.37,2013-10-09 14:33:00,
2013-10-10 01:38:00,58.6,37.3,29.35,SW,225,2.4,2.4,45,0.00,CLR,OVC,0.00,0.0,WeatherDisplay:10.37,2013-10-09 14:38:00,
2013-10-10 01:43:00,58.6,37.3,29.38,SW,225,1.6,0.0,45,0.00,CLR,OVC,0.00,0.0,WeatherDisplay:10.37,2013-10-09 14:43:00,
2013-10-10 01:48:00,58.6,37.3,29.38,NW,315,0.0,0.0,45,0.00,CLR,OVC,0.00,0.0,WeatherDisplay:10.37,2013-10-09 14:48:00,
2013-10-10 01:53:00,58.5,37.7,29.38,SE,135,0.0,0.0,46,0.00,CLR,OVC,0.00,0.0,WeatherDisplay:10.37,2013-10-09 14:53:00,
2013-10-10 01:58:00,58.5,37.7,29.38,South,180,0.0,0.0,46,0.00,CLR,OVC,0.00,0.0,WeatherDisplay:10.37,2013-10-09 14:58:00,
2013-10-10 02:03:00,58.5,37.7,29.38,South,180,0.0,0.0,46,0.00,CLR,OVC,0.00,0.0,WeatherDisplay:10.37,2013-10-09 15:03:00,
2013-10-10 02:08:00,58.3,37.6,29.38,South,180,0.0,0.0,46,0.00,CLR,OVC,0.00,0.0,WeatherDisplay:10.37,2013-10-09 15:08:00,
2013-10-10 02:13:00,58.1,37.4,29.35,SE,135,0.0,0.0,46,0.00,CLR,OVC,0.00,0.0,WeatherDisplay:10.37,2013-10-09 15:13:00,
2013-10-10 02:18:00,57.9,36.7,29.35,SW,225,0.0,0.0,45,0.00,CLR,OVC,0.00,0.0,WeatherDisplay:10.37,2013-10-09 15:18:00,
2013-10-10 02:23:00,57.9,37.2,29.35,West,270,0.0,0.0,46,0.00,CLR,OVC,0.00,0.0,WeatherDisplay:10.37,2013-10-09 15:23:00,
2013-10-10 02:28:00,57.7,37.1,29.35,WSW,248,0.0,0.0,46,0.00,CLR,OVC,0.00,0.0,WeatherDisplay:10.37,2013-10-09 15:28:00,
2013-10-10 02:33:00,57.7,37.1,29.35,West,270,1.2,1.2,46,0.00,CLR,OVC,0.00,0.0,WeatherDisplay:10.37,2013-10-09 15:33:00,
2013-10-10 02:38:00,57.6,36.9,29.35,South,180,0.0,0.0,46,0.00,CLR,OVC,0.00,0.0,WeatherDisplay:10.37,2013-10-09 15:38:00,
2013-10-10 02:44:00,57.2,36.6,29.35,SSE,158,1.6,1.6,46,0.00,CLR,OVC,0.00,0.0,WeatherDisplay:10.37,2013-10-09 15:44:00,
2013-10-10 02:49:00,57.2,37.1,29.35,ENE,68,0.0,0.0,47,0.00,CLR,OVC,0.00,0.0,WeatherDisplay:10.37,2013-10-09 15:49:00,
2013-10-10 02:54:00,57.2,37.1,29.35,ENE,68,0.0,0.0,47,0.00,CLR,OVC,0.00,0.0,WeatherDisplay:10.37,2013-10-09 15:54:00,
2013-10-10 02:59:00,57.0,37.5,29.38,ESE,112,0.0,0.0,48,0.00,CLR,OVC,0.00,0.0,WeatherDisplay:10.37,2013-10-09 15:59:00,
2013-10-10 03:04:00,56.8,37.3,29.38,NE,45,0.0,0.0,48,0.00,CLR,OVC,0.00,0.0,WeatherDisplay:10.37,2013-10-09 16:04:00,
2013-10-10 03:09:00,56.7,37.2,29.38,SSW,202,0.0,0.0,48,0.00,CLR,OVC,0.00,0.0,WeatherDisplay:10.37,2013-10-09 16:09:00,
2013-10-10 03:14:00,56.7,37.2,29.38,WNW,292,0.0,0.0,48,0.00,CLR,OVC,0.00,0.0,WeatherDisplay:10.37,2013-10-09 16:14:00,
2013-10-10 03:19:00,56.5,37.0,29.38,WNW,292,2.3,0.0,48,0.00,CLR,OVC,0.00,0.0,WeatherDisplay:10.37,2013-10-09 16:19:00,
2013-10-10 03:24:00,56.3,36.8,29.38,West,270,2.3,2.3,48,0.00,CLR,OVC,0.00,0.0,WeatherDisplay:10.37,2013-10-09 16:24:00,
2013-10-10 03:29:00,56.3,36.8,29.38,West,270,2.4,2.6,48,0.00,CLR,OVC,0.00,0.0,WeatherDisplay:10.37,2013-10-09 16:29:00,
2013-10-10 03:34:00,56.1,36.7,29.38,WSW,248,2.3,2.3,48,0.00,CLR,OVC,0.00,0.0,WeatherDisplay:10.37,2013-10-09 16:34:00,
2013-10-10 03:39:00,56.3,36.8,29.38,SSW,202,1.2,0.0,48,0.00,CLR,OVC,0.00,0.0,WeatherDisplay:10.37,2013-10-09 16:39:00,
2013-10-10 03:44:00,56.1,36.7,29.38,West,270,2.3,2.3,48,0.00,CLR,OVC,0.00,0.0,WeatherDisplay:10.37,2013-10-09 16:44:00,
2013-10-10 03:49:00,56.3,36.8,29.38,WNW,292,2.3,0.0,48,0.00,CLR,OVC,0.00,0.0,WeatherDisplay:10.37,2013-10-09 16:49:00,
2013-10-10 03:54:00,56.1,36.7,29.38,NW,315,0.0,0.0,48,0.00,CLR,OVC,0.00,0.0,WeatherDisplay:10.37,2013-10-09 16:54:00,
2013-10-10 03:59:00,56.1,37.2,29.38,West,270,0.0,0.0,49,0.00,CLR,OVC,0.00,0.0,WeatherDisplay:10.37,2013-10-09 16:59:00,
2013-10-10 04:04:00,55.9,37.0,29.38,West,270,0.0,0.0,49,0.00,CLR,OVC,0.00,0.0,WeatherDisplay:10.37,2013-10-09 17:04:00,
2013-10-10 04:09:00,55.8,36.9,29.38,WNW,292,1.2,0.0,49,0.00,CLR,OVC,0.00,0.0,WeatherDisplay:10.37,2013-10-09 17:09:00,
2013-10-10 04:14:00,55.6,36.7,29.35,SSW,202,1.2,0.0,49,0.00,CLR,OVC,0.00,0.0,WeatherDisplay:10.37,2013-10-09 17:14:00,
2013-10-10 04:19:00,55.6,36.7,29.35,SSW,202,0.0,0.0,49,0.00,CLR,OVC,0.00,0.0,WeatherDisplay:10.37,2013-10-09 17:19:00,
2013-10-10 04:24:00,55.4,36.5,29.35,SSW,202,1.2,0.0,49,0.00,CLR,OVC,0.00,0.0,WeatherDisplay:10.37,2013-10-09 17:24:00,
2013-10-10 04:29:00,55.2,36.9,29.38,SSE,158,0.0,0.0,50,0.00,CLR,OVC,0.00,0.0,WeatherDisplay:10.37,2013-10-09 17:29:00,
2013-10-10 04:34:00,55.0,36.7,29.38,East,90,1.4,0.0,50,0.00,CLR,OVC,0.00,0.0,WeatherDisplay:10.37,2013-10-09 17:34:00,
2013-10-10 04:39:00,55.0,36.7,29.38,West,270,1.2,0.0,50,0.00,CLR,OVC,0.00,0.0,WeatherDisplay:10.37,2013-10-09 17:39:00,
2013-10-10 04:44:00,54.9,36.6,29.35,SSE,158,1.6,1.6,50,0.00,CLR,OVC,0.00,0.0,WeatherDisplay:10.37,2013-10-09 17:44:00,
2013-10-10 04:49:00,54.7,36.9,29.35,NW,315,1.2,1.2,51,0.00,CLR,OVC,0.00,0.0,WeatherDisplay:10.37,2013-10-09 17:49:00,
2013-10-10 04:54:00,54.7,36.4,29.35,SSW,202,2.3,2.3,50,0.00,CLR,OVC,0.00,0.0,WeatherDisplay:10.37,2013-10-09 17:54:00,
2013-10-10 04:59:00,54.5,36.7,29.38,SSW,202,0.0,0.0,51,0.00,CLR,OVC,0.00,0.0,WeatherDisplay:10.37,2013-10-09 17:59:00,
2013-10-10 05:05:00,54.5,36.7,29.38,SW,225,0.0,0.0,51,0.00,CLR,OVC,0.00,0.0,WeatherDisplay:10.37,2013-10-09 18:05:00,
2013-10-10 05:10:00,54.5,36.7,29.38,NNW,338,0.0,0.0,51,0.00,CLR,OVC,0.00,0.0,WeatherDisplay:10.37,2013-10-09 18:10:00,
2013-10-10 05:14:00,54.5,36.7,29.38,SSW,202,0.0,0.0,51,0.00,CLR,OVC,0.00,0.0,WeatherDisplay:10.37,2013-10-09 18:14:00,
2013-10-10 05:19:00,54.3,36.6,29.38,WNW,292,0.0,0.0,51,0.00,CLR,OVC,0.00,0.0,WeatherDisplay:10.37,2013-10-09 18:19:00,
2013-10-10 05:25:00,54.3,36.6,29.38,SSE,158,0.0,0.0,51,0.00,CLR,OVC,0.00,0.0,WeatherDisplay:10.37,2013-10-09 18:25:00,
2013-10-10 05:30:00,54.3,36.6,29.38,WSW,248,1.2,0.0,51,0.00,CLR,OVC,0.00,0.0,WeatherDisplay:10.37,2013-10-09 18:30:00,
2013-10-10 05:35:00,54.3,36.6,29.38,SSE,158,1.2,0.0,51,0.00,CLR,OVC,0.00,0.0,WeatherDisplay:10.37,2013-10-09 18:35:00,
2013-10-10 05:40:00,54.3,36.6,29.38,WNW,292,0.0,0.0,51,0.00,CLR,OVC,0.00,0.0,WeatherDisplay:10.37,2013-10-09 18:40:00,
2013-10-10 05:45:00,54.1,36.4,29.38,South,180,1.4,1.4,51,0.00,CLR,OVC,0.00,0.0,WeatherDisplay:10.37,2013-10-09 18:45:00,
2013-10-10 05:50:00,54.0,36.7,29.38,West,270,0.0,0.9,52,0.00,CLR,OVC,0.00,0.0,WeatherDisplay:10.37,2013-10-09 18:50:00,
2013-10-10 05:55:00,54.0,36.2,29.38,South,180,0.0,0.0,51,0.00,CLR,OVC,0.00,0.0,WeatherDisplay:10.37,2013-10-09 18:55:00,
2013-10-10 06:00:00,54.1,36.4,29.38,NNE,22,0.0,0.0,51,0.00,CLR,OVC,0.00,0.0,WeatherDisplay:10.37,2013-10-09 19:00:00,
2013-10-10 06:05:00,54.1,36.4,29.38,SSW,202,2.4,0.0,51,0.00,CLR,OVC,0.00,0.0,WeatherDisplay:10.37,2013-10-09 19:05:00,
2013-10-10 06:10:00,54.1,36.9,29.38,WNW,292,1.6,1.6,52,0.00,CLR,OVC,0.00,0.0,WeatherDisplay:10.37,2013-10-09 19:10:00,
2013-10-10 06:15:00,54.1,36.9,29.38,SSE,158,2.3,2.3,52,0.00,CLR,OVC,0.00,0.0,WeatherDisplay:10.37,2013-10-09 19:15:00,
2013-10-10 06:20:00,54.1,36.9,29.38,SSW,202,1.2,1.2,52,0.00,CLR,OVC,0.00,0.0,WeatherDisplay:10.37,2013-10-09 19:20:00,
2013-10-10 06:25:00,54.1,36.9,29.38,SW,225,0.0,0.0,52,0.00,CLR,OVC,0.00,0.0,WeatherDisplay:10.37,2013-10-09 19:25:00,
2013-10-10 06:30:00,54.3,37.1,29.41,South,180,2.4,2.4,52,0.00,CLR,OVC,0.00,0.0,WeatherDisplay:10.37,2013-10-09 19:30:00,
2013-10-10 06:35:00,54.1,36.9,29.41,ESE,112,1.6,1.6,52,0.00,CLR,OVC,0.00,0.0,WeatherDisplay:10.37,2013-10-09 19:35:00,
2013-10-10 06:40:00,54.1,36.9,29.41,SSW,202,1.2,1.6,52,0.00,CLR,OVC,0.00,0.0,WeatherDisplay:10.37,2013-10-09 19:40:00,
2013-10-10 06:45:00,54.1,37.4,29.38,WNW,292,2.3,2.3,53,0.00,CLR,OVC,0.00,0.0,WeatherDisplay:10.37,2013-10-09 19:45:00,
2013-10-10 06:50:00,54.3,37.5,29.38,West,270,2.9,2.9,53,0.00,CLR,OVC,0.00,0.0,WeatherDisplay:10.37,2013-10-09 19:50:00,
2013-10-10 06:55:00,54.5,37.2,29.38,SSE,158,2.3,2.3,52,0.00,CLR,OVC,0.00,0.0,WeatherDisplay:10.37,2013-10-09 19:55:00,
2013-10-10 07:00:00,55.0,37.7,29.41,WNW,292,2.3,2.3,52,0.00,CLR,OVC,0.00,0.0,WeatherDisplay:10.37,2013-10-09 20:00:00,
2013-10-10 07:05:00,55.2,37.9,29.41,West,270,1.2,3.3,52,0.00,CLR,OVC,0.00,0.0,WeatherDisplay:10.37,2013-10-09 20:05:00,
2013-10-10 07:10:00,55.6,37.7,29.41,WSW,248,3.5,3.5,51,0.00,CLR,OVC,0.00,0.0,WeatherDisplay:10.37,2013-10-09 20:10:00,
2013-10-10 07:15:00,55.9,38.1,29.38,NNW,338,2.4,2.4,51,0.00,CLR,OVC,0.00,0.0,WeatherDisplay:10.37,2013-10-09 20:15:00,
2013-10-10 07:20:00,55.9,38.1,29.38,SSE,158,3.5,3.5,51,0.00,CLR,OVC,0.00,0.0,WeatherDisplay:10.37,2013-10-09 20:20:00,
2013-10-10 07:25:00,56.1,38.2,29.38,WSW,248,3.5,3.5,51,0.00,CLR,OVC,0.00,0.0,WeatherDisplay:10.37,2013-10-09 20:25:00,
2013-10-10 07:30:00,56.5,39.1,29.35,SSE,158,2.3,0.0,52,0.00,CLR,OVC,0.00,0.0,WeatherDisplay:10.37,2013-10-09 20:30:00,
2013-10-10 07:35:00,56.7,39.2,29.35,NNW,338,1.2,1.2,52,0.00,CLR,OVC,0.00,0.0,WeatherDisplay:10.37,2013-10-09 20:35:00,
2013-10-10 07:40:00,56.8,39.4,29.35,NW,315,0.0,0.0,52,0.00,CLR,OVC,0.00,0.0,WeatherDisplay:10.37,2013-10-09 20:40:00,
2013-10-10 07:45:00,57.0,39.6,29.38,NW,315,0.0,0.0,52,0.00,CLR,OVC,0.00,0.0,WeatherDisplay:10.37,2013-10-09 20:45:00,
2013-10-10 07:50:00,57.2,39.2,29.38,SSW,202,0.0,0.0,51,0.00,CLR,OVC,0.00,0.0,WeatherDisplay:10.37,2013-10-09 20:50:00,
2013-10-10 07:55:00,57.6,40.5,29.38,West,270,2.3,2.3,53,0.00,CLR,OVC,0.00,0.0,WeatherDisplay:10.37,2013-10-09 20:55:00,
2013-10-10 08:00:00,58.1,41.0,29.38,SSE,158,2.9,0.0,53,0.00,CLR,OVC,0.00,0.0,WeatherDisplay:10.37,2013-10-09 21:00:00,
2013-10-10 08:05:00,58.6,41.5,29.38,South,180,1.6,2.0,53,0.00,CLR,OVC,0.00,0.0,WeatherDisplay:10.37,2013-10-09 21:05:00,
2013-10-10 08:10:00,59.2,42.0,29.38,SW,225,1.6,1.6,53,0.00,CLR,OVC,0.00,0.0,WeatherDisplay:10.37,2013-10-09 21:10:00,
2013-10-10 08:15:00,59.7,43.0,29.41,West,270,1.6,0.0,54,0.00,CLR,OVC,0.00,0.0,WeatherDisplay:10.37,2013-10-09 21:15:00,
2013-10-10 08:20:00,60.3,43.5,29.41,SW,225,1.2,1.2,54,0.00,CLR,OVC,0.00,0.0,WeatherDisplay:10.37,2013-10-09 21:20:00,
2013-10-10 08:25:00,61.2,43.9,29.41,WNW,292,0.0,2.6,53,0.00,CLR,OVC,0.00,0.0,WeatherDisplay:10.37,2013-10-09 21:25:00,
2013-10-10 08:30:00,62.6,44.2,29.38,WSW,248,2.9,2.9,51,0.00,CLR,OVC,0.00,0.0,WeatherDisplay:10.37,2013-10-09 21:30:00,
2013-10-10 08:35:00,63.9,43.2,29.38,North,0,4.6,4.6,47,0.00,CLR,OVC,0.00,0.0,WeatherDisplay:10.37,2013-10-09 21:35:00,
2013-10-10 08:40:00,66.2,43.6,29.38,West,270,3.8,3.8,44,0.00,CLR,OVC,0.00,100.0,WeatherDisplay:10.37,2013-10-09 21:40:00,
2013-10-10 08:45:00,67.6,44.3,29.35,NE,45,5.8,5.8,43,0.00,CLR,OVC,0.00,100.0,WeatherDisplay:10.37,2013-10-09 21:45:00,
2013-10-10 08:50:00,69.8,43.7,29.35,NW,315,6.9,6.9,39,0.00,CLR,OVC,0.00,100.0,WeatherDisplay:10.37,2013-10-09 21:50:00,
2013-10-10 08:55:00,71.8,43.4,29.35,West,270,5.8,5.8,36,0.00,CLR,OVC,0.00,200.0,WeatherDisplay:10.37,2013-10-09 21:55:00,
2013-10-10 09:00:00,73.8,43.6,29.35,WNW,292,5.8,5.8,34,0.00,CLR,OVC,0.00,200.0,WeatherDisplay:10.37,2013-10-09 22:00:00,
2013-10-10 09:05:00,75.9,43.1,29.35,WNW,292,9.2,9.2,31,0.00,CLR,OVC,0.00,200.0,WeatherDisplay:10.37,2013-10-09 22:05:00,
2013-10-10 09:10:00,77.4,44.4,29.35,NNW,338,5.8,5.8,31,0.00,CLR,OVC,0.00,200.0,WeatherDisplay:10.37,2013-10-09 22:10:00,
2013-10-10 09:15:00,79.2,45.0,29.35,NW,315,5.4,5.4,30,0.00,CLR,OVC,0.00,200.0,WeatherDisplay:10.37,2013-10-09 22:15:00,
2013-10-10 09:20:00,80.8,45.6,29.35,WNW,292,6.9,6.9,29,0.00,CLR,OVC,0.00,200.0,WeatherDisplay:10.37,2013-10-09 22:20:00,
2013-10-10 09:25:00,81.9,44.6,29.35,NNW,338,10.4,10.4,27,0.00,CLR,OVC,0.00,300.0,WeatherDisplay:10.37,2013-10-09 22:25:00,
2013-10-10 09:30:00,82.8,44.4,29.32,NW,315,5.8,5.8,26,0.00,CLR,OVC,0.00,300.0,WeatherDisplay:10.37,2013-10-09 22:30:00,
2013-10-10 09:35:00,83.8,45.3,29.32,NW,315,5.8,5.8,26,0.00,CLR,OVC,0.00,300.0,WeatherDisplay:10.37,2013-10-09 22:35:00,
2013-10-10 09:40:00,84.0,42.2,29.32,West,270,3.5,3.5,23,0.00,CLR,OVC,0.00,300.0,WeatherDisplay:10.37,2013-10-09 22:40:00,
2013-10-10 09:45:00,84.4,41.4,29.32,West,270,5.8,5.8,22,0.00,CLR,OVC,0.00,300.0,WeatherDisplay:10.37,2013-10-09 22:45:00,
2013-10-10 09:50:00,85.3,42.1,29.32,NW,315,9.2,9.2,22,0.00,CLR,OVC,0.00,300.0,WeatherDisplay:10.37,2013-10-09 22:50:00,
2013-10-10 09:55:00,85.8,42.6,29.32,NW,315,8.1,8.1,22,0.00,CLR,OVC,0.00,400.0,WeatherDisplay:10.37,2013-10-09 22:55:00,
2013-10-10 10:00:00,86.5,42.0,29.32,NNW,338,10.4,10.4,21,0.00,CLR,OVC,0.00,400.0,WeatherDisplay:10.37,2013-10-09 23:00:00,
2013-10-10 10:05:00,87.1,42.4,29.32,WNW,292,5.8,5.8,21,0.00,CLR,OVC,0.00,400.0,WeatherDisplay:10.37,2013-10-09 23:05:00,
2013-10-10 10:10:00,87.8,41.7,29.32,WNW,292,9.2,9.2,20,0.00,CLR,OVC,0.00,400.0,WeatherDisplay:10.37,2013-10-09 23:10:00,
2013-10-10 10:15:00,88.5,42.3,29.32,WNW,292,5.8,5.8,20,0.00,CLR,OVC,0.00,400.0,WeatherDisplay:10.37,2013-10-09 23:15:00,
2013-10-10 10:20:00,89.2,42.9,29.32,WNW,292,8.1,8.1,20,0.00,CLR,OVC,0.00,500.0,WeatherDisplay:10.37,2013-10-09 23:20:00,
2013-10-10 10:25:00,89.1,41.4,29.32,WNW,292,15.0,15.0,19,0.00,CLR,OVC,0.00,500.0,WeatherDisplay:10.37,2013-10-09 23:25:00,
2013-10-10 10:30:00,89.4,41.7,29.29,West,270,13.0,13.0,19,0.00,CLR,OVC,0.00,500.0,WeatherDisplay:10.37,2013-10-09 23:30:00,
2013-10-10 10:35:00,90.0,40.8,29.29,WNW,292,8.7,8.7,18,0.00,CLR,OVC,0.00,500.0,WeatherDisplay:10.37,2013-10-09 23:35:00,
2013-10-10 10:40:00,90.0,40.8,29.29,NW,315,6.9,6.9,18,0.00,CLR,OVC,0.00,600.0,WeatherDisplay:10.37,2013-10-09 23:40:00,
2013-10-10 10:45:00,90.5,41.2,29.26,NW,315,8.1,8.1,18,0.00,CLR,OVC,0.00,600.0,WeatherDisplay:10.37,2013-10-09 23:45:00,
2013-10-10 10:51:00,91.0,41.6,29.26,NNW,338,9.8,9.8,18,0.00,CLR,OVC,0.00,600.0,WeatherDisplay:10.37,2013-10-09 23:51:00,
2013-10-10 10:56:00,91.4,40.5,29.26,NW,315,9.0,9.0,17,0.00,CLR,OVC,0.00,600.0,WeatherDisplay:10.37,2013-10-09 23:56:00,
2013-10-10 11:01:00,91.8,40.7,29.26,SSW,202,22.8,22.8,17,0.00,CLR,OVC,0.00,700.0,WeatherDisplay:10.37,2013-10-10 00:01:00,
2013-10-10 11:06:00,91.2,41.8,29.26,NNW,338,17.3,17.3,18,0.00,CLR,OVC,0.00,700.0,WeatherDisplay:10.37,2013-10-10 00:06:00,
2013-10-10 11:11:00,91.2,41.8,29.26,WNW,292,8.1,8.1,18,0.00,CLR,OVC,0.00,700.0,WeatherDisplay:10.37,2013-10-10 00:11:00,
2013-10-10 11:16:00,91.6,40.6,29.24,NW,315,13.8,13.8,17,0.00,CLR,OVC,0.00,700.0,WeatherDisplay:10.37,2013-10-10 00:16:00,
2013-10-10 11:21:00,92.5,41.3,29.24,West,270,8.7,8.7,17,0.00,CLR,OVC,0.00,700.0,WeatherDisplay:10.37,2013-10-10 00:21:00,
2013-10-10 11:26:00,93.2,41.9,29.24,West,270,11.5,11.5,17,0.00,CLR,OVC,0.00,700.0,WeatherDisplay:10.37,2013-10-10 00:26:00,
2013-10-10 11:31:00,93.6,40.6,29.20,NNW,338,6.9,6.9,16,0.00,CLR,OVC,0.00,700.0,WeatherDisplay:10.37,2013-10-10 00:31:00,
2013-10-10 11:36:00,93.0,36.8,29.20,West,270,8.7,8.7,14,0.00,CLR,OVC,0.00,700.0,WeatherDisplay:10.37,2013-10-10 00:36:00,
2013-10-10 11:41:00,93.2,40.3,29.20,NW,315,8.1,8.1,16,0.00,CLR,OVC,0.00,700.0,WeatherDisplay:10.37,2013-10-10 00:41:00,
2013-10-10 11:46:00,93.6,40.6,29.20,NNW,338,8.1,8.1,16,0.00,CLR,OVC,0.00,700.0,WeatherDisplay:10.37,2013-10-10 00:46:00,
2013-10-10 11:51:00,93.0,41.8,29.20,North,0,10.0,10.0,17,0.00,CLR,OVC,0.00,800.0,WeatherDisplay:10.37,2013-10-10 00:51:00,
2013-10-10 11:56:00,92.8,36.6,29.20,WNW,292,13.8,13.8,14,0.00,CLR,OVC,0.00,800.0,WeatherDisplay:10.37,2013-10-10 00:56:00,
2013-10-10 12:01:00,93.4,40.5,29.20,NNW,338,11.5,11.5,16,0.00,CLR,OVC,0.00,800.0,WeatherDisplay:10.37,2013-10-10 01:01:00,
2013-10-10 12:06:00,93.7,40.8,29.20,NNE,22,8.1,8.1,16,0.00,CLR,OVC,0.00,800.0,WeatherDisplay:10.37,2013-10-10 01:06:00,
2013-10-10 12:11:00,94.5,37.9,29.20,WNW,292,6.9,6.9,14,0.00,CLR,OVC,0.00,900.0,WeatherDisplay:10.37,2013-10-10 01:11:00,
2013-10-10 12:16:00,93.4,37.1,29.15,NNE,22,7.6,7.6,14,0.00,CLR,OVC,0.00,900.0,WeatherDisplay:10.37,2013-10-10 01:16:00,
2013-10-10 12:21:00,92.7,36.5,29.15,West,270,17.3,17.3,14,0.00,CLR,OVC,0.00,900.0,WeatherDisplay:10.37,2013-10-10 01:21:00,
2013-10-10 12:26:00,93.2,36.9,29.15,NW,315,10.4,10.4,14,0.00,CLR,OVC,0.00,900.0,WeatherDisplay:10.37,2013-10-10 01:26:00,
2013-10-10 12:31:00,94.1,37.6,29.15,West,270,9.2,9.2,14,0.00,CLR,OVC,0.00,900.0,WeatherDisplay:10.37,2013-10-10 01:31:00,
2013-10-10 12:36:00,95.0,38.3,29.15,WNW,292,6.9,7.8,14,0.00,CLR,OVC,0.00,900.0,WeatherDisplay:10.37,2013-10-10 01:36:00,
2013-10-10 12:41:00,95.4,38.6,29.15,NW,315,9.2,9.2,14,0.00,CLR,OVC,0.00,900.0,WeatherDisplay:10.37,2013-10-10 01:41:00,
2013-10-10 12:46:00,95.4,38.6,29.15,West,270,10.0,10.0,14,0.00,CLR,OVC,0.00,900.0,WeatherDisplay:10.37,2013-10-10 01:46:00,
2013-10-10 12:51:00,95.7,38.9,29.15,West,270,8.1,8.1,14,0.00,CLR,OVC,0.00,900.0,WeatherDisplay:10.37,2013-10-10 01:51:00,
2013-10-10 12:56:00,96.1,39.2,29.15,NW,315,9.2,9.2,14,0.00,CLR,OVC,0.00,900.0,WeatherDisplay:10.37,2013-10-10 01:56:00,
2013-10-10 13:01:00,95.7,38.9,29.15,NW,315,9.2,9.2,14,0.00,CLR,OVC,0.00,900.0,WeatherDisplay:10.37,2013-10-10 02:01:00,
2013-10-10 13:06:00,96.4,39.5,29.15,NW,315,6.9,6.9,14,0.00,CLR,OVC,0.00,900.0,WeatherDisplay:10.37,2013-10-10 02:06:00,
2013-10-10 13:11:00,96.6,39.6,29.15,WNW,292,12.7,12.7,14,0.00,CLR,OVC,0.00,900.0,WeatherDisplay:10.37,2013-10-10 02:11:00,
2013-10-10 13:16:00,96.4,39.5,29.12,WNW,292,10.4,10.4,14,0.00,CLR,OVC,0.00,900.0,WeatherDisplay:10.37,2013-10-10 02:16:00,
2013-10-10 13:21:00,96.3,33.2,29.12,North,0,8.1,8.1,11,0.00,CLR,OVC,0.00,800.0,WeatherDisplay:10.37,2013-10-10 02:21:00,
2013-10-10 13:26:00,96.4,39.5,29.12,WSW,248,10.4,10.4,14,0.00,CLR,OVC,0.00,800.0,WeatherDisplay:10.37,2013-10-10 02:26:00,
2013-10-10 13:31:00,97.0,33.8,29.09,WSW,248,12.7,12.7,11,0.00,CLR,OVC,0.00,800.0,WeatherDisplay:10.37,2013-10-10 02:31:00,
2013-10-10 13:36:00,97.2,38.1,29.09,WNW,292,10.7,10.7,13,0.00,CLR,OVC,0.00,800.0,WeatherDisplay:10.37,2013-10-10 02:36:00,
2013-10-10 13:41:00,96.6,33.5,29.09,NNW,338,4.6,7.1,11,0.00,CLR,OVC,0.00,800.0,WeatherDisplay:10.37,2013-10-10 02:41:00,
2013-10-10 13:46:00,97.2,33.9,29.09,WNW,292,4.6,4.6,11,0.00,CLR,OVC,0.00,700.0,WeatherDisplay:10.37,2013-10-10 02:46:00,
2013-10-10 13:51:00,97.5,34.2,29.09,NNW,338,9.8,9.8,11,0.00,CLR,OVC,0.00,700.0,WeatherDisplay:10.37,2013-10-10 02:51:00,
2013-10-10 13:56:00,97.9,34.5,29.09,WNW,292,11.2,11.2,11,0.00,CLR,OVC,0.00,700.0,WeatherDisplay:10.37,2013-10-10 02:56:00,
2013-10-10 14:01:00,97.9,34.5,29.09,WNW,292,12.7,12.7,11,0.00,CLR,OVC,0.00,700.0,WeatherDisplay:10.37,2013-10-10 03:01:00,
2013-10-10 14:06:00,97.2,33.9,29.09,West,270,8.1,8.1,11,0.00,CLR,OVC,0.00,700.0,WeatherDisplay:10.37,2013-10-10 03:06:00,
2013-10-10 14:11:00,97.7,34.3,29.09,SW,225,9.7,9.7,11,0.00,CLR,OVC,0.00,700.0,WeatherDisplay:10.37,2013-10-10 03:11:00,
2013-10-10 14:16:00,97.7,34.3,29.09,SSW,202,8.7,8.7,11,0.00,CLR,OVC,0.00,600.0,WeatherDisplay:10.37,2013-10-10 03:16:00,
2013-10-10 14:21:00,97.9,34.5,29.09,NW,315,6.9,6.9,11,0.00,CLR,OVC,0.00,600.0,WeatherDisplay:10.37,2013-10-10 03:21:00,
2013-10-10 14:26:00,97.7,34.3,29.09,North,0,14.3,14.3,11,0.00,CLR,OVC,0.00,600.0,WeatherDisplay:10.37,2013-10-10 03:26:00,
2013-10-10 14:31:00,96.6,33.5,29.09,North,0,16.1,16.1,11,0.00,CLR,OVC,0.00,600.0,WeatherDisplay:10.37,2013-10-10 03:31:00,
2013-10-10 14:36:00,96.4,33.4,29.09,WNW,292,17.0,17.0,11,0.00,CLR,OVC,0.00,600.0,WeatherDisplay:10.37,2013-10-10 03:36:00,
2013-10-10 14:41:00,96.4,33.4,29.09,WNW,292,13.8,13.8,11,0.00,CLR,OVC,0.00,600.0,WeatherDisplay:10.37,2013-10-10 03:41:00,
2013-10-10 14:46:00,96.8,33.6,29.06,NNW,338,6.9,6.9,11,0.00,CLR,OVC,0.00,600.0,WeatherDisplay:10.37,2013-10-10 03:46:00,
2013-10-10 14:51:00,96.6,33.5,29.06,WNW,292,10.2,10.2,11,0.00,CLR,OVC,0.00,600.0,WeatherDisplay:10.37,2013-10-10 03:51:00,
2013-10-10 14:56:00,96.4,33.4,29.06,NNW,338,11.5,11.5,11,0.00,CLR,OVC,0.00,500.0,WeatherDisplay:10.37,2013-10-10 03:56:00,
2013-10-10 15:01:00,96.4,33.4,29.03,NNE,22,12.7,12.7,11,0.00,CLR,OVC,0.00,0.0,WeatherDisplay:10.37,2013-10-10 04:01:00,
2013-10-10 15:02:00,96.4,33.4,29.03,WNW,292,11.4,11.4,11,0.00,CLR,OVC,0.00,0.0,WeatherDisplay:10.37,2013-10-10 04:02:00,
2013-10-10 15:07:00,96.4,33.4,29.03,NNW,338,6.9,6.9,11,0.00,CLR,OVC,0.00,0.0,WeatherDisplay:10.37,2013-10-10 04:07:00,
2013-10-10 15:12:00,96.1,33.1,29.03,NNW,338,10.2,10.2,11,0.00,CLR,OVC,0.00,0.0,WeatherDisplay:10.37,2013-10-10 04:12:00,
2013-10-10 15:17:00,96.1,33.1,29.03,West,270,10.7,10.7,11,0.00,CLR,OVC,0.00,0.0,WeatherDisplay:10.37,2013-10-10 04:17:00,
2013-10-10 16:08:00,95.5,32.7,29.00,WNW,292,13.8,13.8,11,0.00,CLR,OVC,0.00,0.0,WeatherDisplay:10.37,2013-10-10 05:08:00,
2013-10-10 16:13:00,95.2,32.4,29.00,West,270,9.7,9.7,11,0.00,CLR,OVC,0.00,0.0,WeatherDisplay:10.37,2013-10-10 05:13:00,
2013-10-10 16:18:00,95.4,32.5,29.00,NNW,338,6.9,6.9,11,0.00,CLR,OVC,0.00,0.0,WeatherDisplay:10.37,2013-10-10 05:18:00,
2013-10-10 16:23:00,95.0,32.3,29.00,NW,315,5.8,6.2,11,0.00,CLR,OVC,0.00,0.0,WeatherDisplay:10.37,2013-10-10 05:23:00,
2013-10-10 16:28:00,94.8,32.1,29.00,WNW,292,5.8,5.8,11,0.00,CLR,OVC,0.00,0.0,WeatherDisplay:10.37,2013-10-10 05:28:00,
2013-10-10 16:33:00,94.6,32.0,29.00,NW,315,11.5,11.5,11,0.00,CLR,OVC,0.00,0.0,WeatherDisplay:10.37,2013-10-10 05:33:00,
2013-10-10 16:38:00,94.3,31.7,29.00,West,270,6.4,6.4,11,0.00,CLR,OVC,0.00,0.0,WeatherDisplay:10.37,2013-10-10 05:38:00,
2013-10-10 16:43:00,94.3,31.7,28.97,WNW,292,10.7,10.7,11,0.00,CLR,OVC,0.00,0.0,WeatherDisplay:10.37,2013-10-10 05:43:00,
2013-10-10 16:48:00,93.9,31.4,28.97,North,0,6.0,6.0,11,0.00,CLR,OVC,0.00,0.0,WeatherDisplay:10.37,2013-10-10 05:48:00,
2013-10-10 16:53:00,93.9,31.4,28.97,NNW,338,10.4,10.4,11,0.00,CLR,OVC,0.00,0.0,WeatherDisplay:10.37,2013-10-10 05:53:00,
2013-10-10 16:58:00,93.7,31.3,28.97,WNW,292,10.4,10.4,11,0.00,CLR,OVC,0.00,0.0,WeatherDisplay:10.37,2013-10-10 05:58:00,
2013-10-10 17:03:00,93.6,31.2,28.97,NW,315,8.1,8.1,11,0.00,CLR,OVC,0.00,0.0,WeatherDisplay:10.37,2013-10-10 06:03:00,
2013-10-10 17:08:00,93.4,31.0,28.97,NNW,338,4.6,4.6,11,0.00,CLR,OVC,0.00,0.0,WeatherDisplay:10.37,2013-10-10 06:08:00,
2013-10-10 17:13:00,93.2,30.9,28.97,West,270,10.5,10.5,11,0.00,CLR,OVC,0.00,0.0,WeatherDisplay:10.37,2013-10-10 06:13:00,
2013-10-10 17:18:00,92.8,32.8,28.97,WNW,292,8.1,8.1,12,0.00,CLR,OVC,0.00,0.0,WeatherDisplay:10.37,2013-10-10 06:18:00,
2013-10-10 17:23:00,92.7,25.6,28.97,NW,315,6.9,6.9,9,0.00,CLR,OVC,0.00,0.0,WeatherDisplay:10.37,2013-10-10 06:23:00,
2013-10-10 17:28:00,92.3,25.3,28.97,West,270,10.0,10.0,9,0.00,CLR,OVC,0.00,0.0,WeatherDisplay:10.37,2013-10-10 06:28:00,
2013-10-10 17:33:00,92.1,25.2,28.97,WNW,292,10.4,10.4,9,0.00,CLR,OVC,0.00,0.0,WeatherDisplay:10.37,2013-10-10 06:33:00,
2013-10-10 17:38:00,91.8,24.9,28.97,NW,315,13.8,13.8,9,0.00,CLR,OVC,0.00,0.0,WeatherDisplay:10.37,2013-10-10 06:38:00,
2013-10-10 17:43:00,91.6,24.8,28.97,WNW,292,8.1,8.1,9,0.00,CLR,OVC,0.00,0.0,WeatherDisplay:10.37,2013-10-10 06:43:00,
2013-10-10 17:48:00,91.2,27.0,28.97,West,270,10.4,10.4,10,0.00,CLR,OVC,0.00,0.0,WeatherDisplay:10.37,2013-10-10 06:48:00,
2013-10-10 17:53:00,91.0,26.9,28.97,NNE,22,5.8,5.8,10,0.00,CLR,OVC,0.00,0.0,WeatherDisplay:10.37,2013-10-10 06:53:00,
2013-10-10 17:58:00,90.7,26.6,29.00,West,270,6.0,6.0,10,0.00,CLR,OVC,0.00,0.0,WeatherDisplay:10.37,2013-10-10 06:58:00,
2013-10-10 18:03:00,90.5,26.5,29.00,WNW,292,10.4,10.4,10,0.00,CLR,OVC,0.00,0.0,WeatherDisplay:10.37,2013-10-10 07:03:00,
2013-10-10 18:08:00,90.1,26.2,29.00,West,270,5.8,5.8,10,0.00,CLR,OVC,0.00,0.0,WeatherDisplay:10.37,2013-10-10 07:08:00,
2013-10-10 18:13:00,90.0,26.1,29.00,NW,315,6.9,6.9,10,0.00,CLR,OVC,0.00,0.0,WeatherDisplay:10.37,2013-10-10 07:13:00,
2013-10-10 18:18:00,89.8,25.9,29.00,NNW,338,4.3,4.3,10,0.00,CLR,OVC,0.00,0.0,WeatherDisplay:10.37,2013-10-10 07:18:00,
2013-10-10 18:23:00,89.2,25.5,29.00,WNW,292,5.4,5.4,10,0.00,CLR,OVC,0.00,0.0,WeatherDisplay:10.37,2013-10-10 07:23:00,
2013-10-10 18:28:00,89.1,25.4,29.00,WNW,292,6.9,6.9,10,0.00,CLR,OVC,0.00,0.0,WeatherDisplay:10.37,2013-10-10 07:28:00,
2013-10-10 18:33:00,88.5,25.0,29.00,WNW,292,5.8,5.8,10,0.00,CLR,OVC,0.00,0.0,WeatherDisplay:10.37,2013-10-10 07:33:00,
2013-10-10 18:38:00,88.3,24.8,29.00,NNE,22,2.3,2.3,10,0.00,CLR,OVC,0.00,0.0,WeatherDisplay:10.37,2013-10-10 07:38:00,
2013-10-10 18:43:00,88.0,24.6,29.00,West,270,5.8,5.8,10,0.00,CLR,OVC,0.00,0.0,WeatherDisplay:10.37,2013-10-10 07:43:00,
2013-10-10 18:48:00,87.6,26.6,29.00,WNW,292,3.5,0.0,11,0.00,CLR,OVC,0.00,0.0,WeatherDisplay:10.37,2013-10-10 07:48:00,
2013-10-10 18:53:00,87.1,26.2,29.00,SW,225,2.3,2.3,11,0.00,CLR,OVC,0.00,0.0,WeatherDisplay:10.37,2013-10-10 07:53:00,
2013-10-10 18:58:00,86.2,29.6,29.00,SSE,158,2.6,2.6,13,0.00,CLR,OVC,0.00,0.0,WeatherDisplay:10.37,2013-10-10 07:58:00,
2013-10-10 19:03:00,85.5,24.9,29.00,WNW,292,4.7,4.7,11,0.00,CLR,OVC,0.00,0.0,WeatherDisplay:10.37,2013-10-10 08:03:00,
2013-10-10 19:08:00,85.3,28.8,29.00,NNW,338,3.5,3.5,13,0.00,CLR,OVC,0.00,0.0,WeatherDisplay:10.37,2013-10-10 08:08:00,
2013-10-10 19:13:00,84.7,28.4,29.03,WNW,292,1.2,0.0,13,0.00,CLR,OVC,0.00,0.0,WeatherDisplay:10.37,2013-10-10 08:13:00,
2013-10-10 19:18:00,84.4,28.1,29.03,SSE,158,1.4,0.0,13,0.00,CLR,OVC,0.00,0.0,WeatherDisplay:10.37,2013-10-10 08:18:00,
2013-10-10 19:23:00,83.5,29.2,29.03,West,270,2.3,2.3,14,0.00,CLR,OVC,0.00,0.0,WeatherDisplay:10.37,2013-10-10 08:23:00,
2013-10-10 19:28:00,82.9,28.8,29.03,SSW,202,1.2,1.2,14,0.00,CLR,OVC,0.00,0.0,WeatherDisplay:10.37,2013-10-10 08:28:00,
2013-10-10 19:33:00,82.2,28.3,29.03,South,180,1.2,0.0,14,0.00,CLR,OVC,0.00,0.0,WeatherDisplay:10.37,2013-10-10 08:33:00,
2013-10-10 19:38:00,81.7,27.8,29.03,SW,225,0.0,0.0,14,0.00,CLR,OVC,0.00,0.0,WeatherDisplay:10.37,2013-10-10 08:38:00,
2013-10-10 19:43:00,81.1,27.4,29.03,NNW,338,1.2,0.0,14,0.00,CLR,OVC,0.00,0.0,WeatherDisplay:10.37,2013-10-10 08:43:00,
2013-10-10 19:48:00,80.8,27.1,29.03,South,180,2.3,2.3,14,0.00,CLR,OVC,0.00,0.0,WeatherDisplay:10.37,2013-10-10 08:48:00,
2013-10-10 19:53:00,80.2,28.4,29.03,West,270,1.6,0.0,15,0.00,CLR,OVC,0.00,0.0,WeatherDisplay:10.37,2013-10-10 08:53:00,
2013-10-10 19:58:00,79.9,28.1,29.03,SSW,202,1.6,1.6,15,0.00,CLR,OVC,0.00,0.0,WeatherDisplay:10.37,2013-10-10 08:58:00,
2013-10-10 20:03:00,79.5,27.8,29.03,East,90,0.0,0.0,15,0.00,CLR,OVC,0.00,0.0,WeatherDisplay:10.37,2013-10-10 09:03:00,
2013-10-10 20:08:00,79.0,27.4,29.03,West,270,0.0,0.0,15,0.00,CLR,OVC,0.00,0.0,WeatherDisplay:10.37,2013-10-10 09:08:00,
2013-10-10 20:13:00,78.4,26.9,29.03,SSW,202,2.3,2.3,15,0.00,CLR,OVC,0.00,0.0,WeatherDisplay:10.37,2013-10-10 09:13:00,
2013-10-10 20:18:00,78.1,31.1,29.03,SSW,202,1.2,1.2,18,0.00,CLR,OVC,0.00,0.0,WeatherDisplay:10.37,2013-10-10 09:18:00,
2013-10-10 20:23:00,77.7,30.8,29.03,East,90,1.2,0.0,18,0.00,CLR,OVC,0.00,0.0,WeatherDisplay:10.37,2013-10-10 09:23:00,
2013-10-10 20:28:00,77.5,30.7,29.03,NNE,22,1.6,1.6,18,0.00,CLR,OVC,0.00,0.0,WeatherDisplay:10.37,2013-10-10 09:28:00,
2013-10-10 20:33:00,77.2,30.4,29.03,WSW,248,1.2,1.2,18,0.00,CLR,OVC,0.00,0.0,WeatherDisplay:10.37,2013-10-10 09:33:00,
2013-10-10 20:38:00,76.8,30.1,29.03,NW,315,2.3,2.3,18,0.00,CLR,OVC,0.00,0.0,WeatherDisplay:10.37,2013-10-10 09:38:00,
2013-10-10 20:43:00,76.5,32.4,29.03,SSW,202,1.2,1.2,20,0.00,CLR,OVC,0.00,0.0,WeatherDisplay:10.37,2013-10-10 09:43:00,
2013-10-10 20:48:00,76.1,32.1,29.03,West,270,3.5,3.5,20,0.00,CLR,OVC,0.00,0.0,WeatherDisplay:10.37,2013-10-10 09:48:00,
2013-10-10 20:53:00,75.7,33.0,29.03,WSW,248,0.0,0.0,21,0.00,CLR,OVC,0.00,0.0,WeatherDisplay:10.37,2013-10-10 09:53:00,
2013-10-10 20:58:00,75.6,32.9,29.06,SW,225,2.3,2.3,21,0.00,CLR,OVC,0.00,0.0,WeatherDisplay:10.37,2013-10-10 09:58:00,
2013-10-10 21:03:00,75.2,32.6,29.06,NW,315,1.2,1.2,21,0.00,CLR,OVC,0.00,0.0,WeatherDisplay:10.37,2013-10-10 10:03:00,
2013-10-10 21:08:00,74.8,32.3,29.06,SW,225,1.2,0.0,21,0.00,CLR,OVC,0.00,0.0,WeatherDisplay:10.37,2013-10-10 10:08:00,
2013-10-10 21:13:00,74.7,32.1,29.03,South,180,0.9,0.0,21,0.00,CLR,OVC,0.00,0.0,WeatherDisplay:10.37,2013-10-10 10:13:00,
2013-10-10 21:19:00,74.3,33.0,29.03,NNE,22,0.0,0.0,22,0.00,CLR,OVC,0.00,0.0,WeatherDisplay:10.37,2013-10-10 10:19:00,
2013-10-10 21:24:00,73.8,32.5,29.03,NNW,338,0.0,0.0,22,0.00,CLR,OVC,0.00,0.0,WeatherDisplay:10.37,2013-10-10 10:24:00,
2013-10-10 21:29:00,73.4,32.2,29.03,NW,315,2.3,2.3,22,0.00,CLR,OVC,0.00,0.0,WeatherDisplay:10.37,2013-10-10 10:29:00,
2013-10-10 21:34:00,73.0,33.0,29.03,WSW,248,1.2,1.2,23,0.00,CLR,OVC,0.00,0.0,WeatherDisplay:10.37,2013-10-10 10:34:00,
2013-10-10 21:39:00,72.9,32.9,29.03,NW,315,1.6,1.6,23,0.00,CLR,OVC,0.00,0.0,WeatherDisplay:10.37,2013-10-10 10:39:00,
2013-10-10 21:44:00,72.3,32.4,29.03,WSW,248,2.3,2.3,23,0.00,CLR,OVC,0.00,0.0,WeatherDisplay:10.37,2013-10-10 10:44:00,
2013-10-10 21:49:00,72.3,32.4,29.03,NNW,338,2.3,2.3,23,0.00,CLR,OVC,0.00,0.0,WeatherDisplay:10.37,2013-10-10 10:49:00,
2013-10-10 21:54:00,72.1,33.3,29.03,WSW,248,2.3,2.3,24,0.00,CLR,OVC,0.00,0.0,WeatherDisplay:10.37,2013-10-10 10:54:00,
2013-10-10 21:59:00,72.0,33.2,29.03,NNW,338,3.5,3.5,24,0.00,CLR,OVC,0.00,0.0,WeatherDisplay:10.37,2013-10-10 10:59:00,
2013-10-10 22:04:00,71.8,33.0,29.03,SW,225,2.3,2.4,24,0.00,CLR,OVC,0.00,0.0,WeatherDisplay:10.37,2013-10-10 11:04:00,
2013-10-10 22:09:00,71.8,33.0,29.03,West,270,3.5,3.5,24,0.00,CLR,OVC,0.00,0.0,WeatherDisplay:10.37,2013-10-10 11:09:00,
2013-10-10 22:14:00,71.6,32.9,29.06,WNW,292,2.3,2.3,24,0.00,CLR,OVC,0.00,0.0,WeatherDisplay:10.37,2013-10-10 11:14:00,
2013-10-10 22:19:00,71.2,33.6,29.06,WSW,248,3.3,3.3,25,0.00,CLR,OVC,0.00,0.0,WeatherDisplay:10.37,2013-10-10 11:19:00,
2013-10-10 22:24:00,71.4,33.7,29.06,NNW,338,2.3,2.3,25,0.00,CLR,OVC,0.00,0.0,WeatherDisplay:10.37,2013-10-10 11:24:00,
2013-10-10 22:29:00,71.2,34.6,29.03,WSW,248,2.3,2.3,26,0.00,CLR,OVC,0.00,0.0,WeatherDisplay:10.37,2013-10-10 11:29:00,
2013-10-10 22:34:00,71.2,34.6,29.03,WSW,248,2.6,2.6,26,0.00,CLR,OVC,0.00,0.0,WeatherDisplay:10.37,2013-10-10 11:34:00,
2013-10-10 22:39:00,71.6,33.9,29.03,NW,315,3.6,3.8,25,0.00,CLR,OVC,0.00,0.0,WeatherDisplay:10.37,2013-10-10 11:39:00,
2013-10-10 22:44:00,72.3,34.5,29.03,NNW,338,2.3,2.3,25,0.00,CLR,OVC,0.00,0.0,WeatherDisplay:10.37,2013-10-10 11:44:00,
2013-10-10 22:49:00,72.3,35.5,29.03,SW,225,2.6,0.0,26,0.00,CLR,OVC,0.00,0.0,WeatherDisplay:10.37,2013-10-10 11:49:00,
2013-10-10 22:54:00,72.1,35.3,29.03,NW,315,2.3,2.3,26,0.00,CLR,OVC,0.00,0.0,WeatherDisplay:10.37,2013-10-10 11:54:00,
2013-10-10 22:59:00,71.8,35.0,29.03,WSW,248,3.5,3.5,26,0.00,CLR,OVC,0.00,0.0,WeatherDisplay:10.37,2013-10-10 11:59:00,
2013-10-10 23:04:00,72.7,34.8,29.03,SW,225,2.4,2.4,25,0.00,CLR,OVC,0.00,0.0,WeatherDisplay:10.37,2013-10-10 12:04:00,
2013-10-10 23:09:00,74.7,36.5,29.03,NNW,338,5.8,5.8,25,0.00,CLR,OVC,0.00,0.0,WeatherDisplay:10.37,2013-10-10 12:09:00,
2013-10-10 23:14:00,75.0,36.8,29.03,West,270,2.9,2.9,25,0.00,CLR,OVC,0.00,0.0,WeatherDisplay:10.37,2013-10-10 12:14:00,
2013-10-10 23:19:00,75.9,36.5,29.03,WNW,292,8.1,8.1,24,0.00,CLR,OVC,0.00,0.0,WeatherDisplay:10.37,2013-10-10 12:19:00,
2013-10-10 23:24:00,76.3,36.8,29.03,WNW,292,4.0,4.0,24,0.00,CLR,OVC,0.00,0.0,WeatherDisplay:10.37,2013-10-10 12:24:00,
2013-10-10 23:29:00,77.2,36.5,29.03,WNW,292,4.6,4.6,23,0.00,CLR,OVC,0.00,0.0,WeatherDisplay:10.37,2013-10-10 12:29:00,
2013-10-10 23:34:00,77.5,36.8,29.03,WNW,292,4.6,4.6,23,0.00,CLR,OVC,0.00,0.0,WeatherDisplay:10.37,2013-10-10 12:34:00,
2013-10-10 23:39:00,77.5,36.8,29.03,West,270,4.6,4.6,23,0.00,CLR,OVC,0.00,0.0,WeatherDisplay:10.37,2013-10-10 12:39:00,
2013-10-10 23:44:00,77.2,36.5,29.03,WNW,292,5.8,5.8,23,0.00,CLR,OVC,0.00,0.0,WeatherDisplay:10.37,2013-10-10 12:44:00,
2013-10-10 23:49:00,77.7,35.8,29.03,NNW,338,4.6,4.6,22,0.00,CLR,OVC,0.00,0.0,WeatherDisplay:10.37,2013-10-10 12:49:00,
2013-10-10 23:54:00,78.6,36.6,29.03,NW,315,5.8,5.8,22,0.00,CLR,OVC,0.00,0.0,WeatherDisplay:10.37,2013-10-10 12:54:00,
2013-10-10 23:59:00,79.2,37.0,29.03,WNW,292,3.5,3.5,22,0.00,CLR,OVC,0.00,0.0,WeatherDisplay:10.37,2013-10-10 12:59:00,